Terminal Aerodrome Forecast
Issued by NWS Charleston, WV

Current Version | Previous Version | Graphics & Text | Print | Product List | Glossary On
Versions: 1 2 3 4 5 6 7 8 9 10 11 12 13 14 15 16 17 18 19 20 21 22 23
000
FTUS41 KRLX 261729
TAFBKW
TAF
KBKW 261729Z 2618/2718 22007KT P6SM VCSH BKN050
     FM270100 17006KT P6SM VCTS BKN070CB
     FM270800 19005KT 6SM -SHRA VCTS BKN035CB
     FM271000 20004KT 4SM SHRA BR VCTS OVC025CB
     FM271500 23007KT 6SM SHRA BR VCTS BKN035CB=

USA.gov is the U.S. government's official web portal to all federal, state and local government web resources and services.